sensor_id;sensor_type;location;lat;lon;timestamp;P1;durP1;ratioP1;P2;durP2;ratioP2
72284;SDS011;60220;53.552;10.092;2022-07-21T00:00:00;13.38;;;6.88;;
72284;SDS011;60220;53.552;10.092;2022-07-21T00:02:30;14.25;;;8.40;;
72284;SDS011;60220;53.552;10.092;2022-07-21T00:04:57;12.45;;;6.97;;
72284;SDS011;60220;53.552;10.092;2022-07-21T00:07:23;11.40;;;6.68;;
72284;SDS011;60220;53.552;10.092;2022-07-21T00:09:51;9.98;;;6.55;;
72284;SDS011;60220;53.552;10.092;2022-07-21T00:12:19;12.38;;;6.93;;
72284;SDS011;60220;53.552;10.092;2022-07-21T00:14:44;10.73;;;7.03;;
72284;SDS011;60220;53.552;10.092;2022-07-21T00:17:12;14.75;;;6.35;;
72284;SDS011;60220;53.552;10.092;2022-07-21T00:19:37;10.77;;;6.35;;
72284;SDS011;60220;53.552;10.092;2022-07-21T00:22:03;11.52;;;6.60;;
72284;SDS011;60220;53.552;10.092;2022-07-21T00:24:28;16.05;;;8.30;;
72284;SDS011;60220;53.552;10.092;2022-07-21T00:26:53;13.00;;;7.60;;
72284;SDS011;60220;53.552;10.092;2022-07-21T00:29:19;12.38;;;6.55;;
72284;SDS011;60220;53.552;10.092;2022-07-21T00:31:44;26.20;;;12.63;;
72284;SDS011;60220;53.552;10.092;2022-07-21T00:34:12;9.82;;;6.45;;
72284;SDS011;60220;53.552;10.092;2022-07-21T00:36:38;11.85;;;6.57;;
72284;SDS011;60220;53.552;10.092;2022-07-21T00:39:05;14.00;;;7.05;;
72284;SDS011;60220;53.552;10.092;2022-07-21T00:41:31;12.95;;;7.28;;
72284;SDS011;60220;53.552;10.092;2022-07-21T00:44:01;16.00;;;8.80;;
72284;SDS011;60220;53.552;10.092;2022-07-21T00:46:27;17.02;;;7.65;;
72284;SDS011;60220;53.552;10.092;2022-07-21T00:48:52;12.98;;;7.25;;
72284;SDS011;60220;53.552;10.092;2022-07-21T00:51:18;12.20;;;7.45;;
72284;SDS011;60220;53.552;10.092;2022-07-21T00:53:44;13.82;;;8.63;;
72284;SDS011;60220;53.552;10.092;2022-07-21T00:56:12;15.52;;;7.78;;
72284;SDS011;60220;53.552;10.092;2022-07-21T00:58:39;12.43;;;7.95;;
72284;SDS011;60220;53.552;10.092;2022-07-21T01:01:08;14.50;;;7.38;;
72284;SDS011;60220;53.552;10.092;2022-07-21T01:03:36;14.18;;;8.48;;
72284;SDS011;60220;53.552;10.092;2022-07-21T01:06:02;11.07;;;6.90;;
72284;SDS011;60220;53.552;10.092;2022-07-21T01:08:31;13.52;;;7.80;;
72284;SDS011;60220;53.552;10.092;2022-07-21T01:10:59;11.60;;;8.45;;
72284;SDS011;60220;53.552;10.092;2022-07-21T01:13:24;16.15;;;8.70;;
72284;SDS011;60220;53.552;10.092;2022-07-21T01:15:52;16.02;;;8.75;;
72284;SDS011;60220;53.552;10.092;2022-07-21T01:18:17;19.55;;;8.32;;
72284;SDS011;60220;53.552;10.092;2022-07-21T01:20:46;15.00;;;8.43;;
72284;SDS011;60220;53.552;10.092;2022-07-21T01:23:17;15.23;;;8.32;;
72284;SDS011;60220;53.552;10.092;2022-07-21T01:25:49;13.63;;;7.47;;
72284;SDS011;60220;53.552;10.092;2022-07-21T01:28:18;14.23;;;8.40;;
72284;SDS011;60220;53.552;10.092;2022-07-21T01:30:43;15.45;;;8.25;;
72284;SDS011;60220;53.552;10.092;2022-07-21T01:33:09;14.05;;;7.75;;
72284;SDS011;60220;53.552;10.092;2022-07-21T01:35:36;16.08;;;8.52;;
72284;SDS011;60220;53.552;10.092;2022-07-21T01:38:02;17.27;;;9.40;;
72284;SDS011;60220;53.552;10.092;2022-07-21T01:40:28;15.38;;;8.85;;
72284;SDS011;60220;53.552;10.092;2022-07-21T01:43:12;10.85;;;7.63;;
72284;SDS011;60220;53.552;10.092;2022-07-21T01:45:42;12.32;;;7.65;;
72284;SDS011;60220;53.552;10.092;2022-07-21T01:48:08;21.95;;;8.48;;
72284;SDS011;60220;53.552;10.092;2022-07-21T01:50:36;15.32;;;8.45;;
72284;SDS011;60220;53.552;10.092;2022-07-21T01:53:02;14.30;;;8.30;;
72284;SDS011;60220;53.552;10.092;2022-07-21T01:55:27;12.88;;;7.50;;
72284;SDS011;60220;53.552;10.092;2022-07-21T01:57:56;14.18;;;8.27;;
72284;SDS011;60220;53.552;10.092;2022-07-21T02:00:22;17.05;;;9.10;;
72284;SDS011;60220;53.552;10.092;2022-07-21T02:02:49;16.27;;;8.60;;
72284;SDS011;60220;53.552;10.092;2022-07-21T02:05:17;24.35;;;9.90;;
72284;SDS011;60220;53.552;10.092;2022-07-21T02:07:45;13.73;;;7.97;;
72284;SDS011;60220;53.552;10.092;2022-07-21T02:10:11;15.95;;;8.80;;
72284;SDS011;60220;53.552;10.092;2022-07-21T02:12:36;21.23;;;8.52;;
72284;SDS011;60220;53.552;10.092;2022-07-21T02:15:02;17.20;;;8.10;;
72284;SDS011;60220;53.552;10.092;2022-07-21T02:17:27;18.00;;;9.02;;
72284;SDS011;60220;53.552;10.092;2022-07-21T02:19:53;15.85;;;9.32;;
72284;SDS011;60220;53.552;10.092;2022-07-21T02:22:20;26.08;;;12.68;;
72284;SDS011;60220;53.552;10.092;2022-07-21T02:24:46;24.33;;;11.93;;
72284;SDS011;60220;53.552;10.092;2022-07-21T02:27:13;17.40;;;9.20;;
72284;SDS011;60220;53.552;10.092;2022-07-21T02:29:44;19.05;;;8.73;;
72284;SDS011;60220;53.552;10.092;2022-07-21T02:32:11;14.48;;;8.18;;
72284;SDS011;60220;53.552;10.092;2022-07-21T02:34:39;21.60;;;9.48;;
72284;SDS011;60220;53.552;10.092;2022-07-21T02:37:07;20.17;;;8.55;;
72284;SDS011;60220;53.552;10.092;2022-07-21T02:39:32;17.65;;;9.18;;
72284;SDS011;60220;53.552;10.092;2022-07-21T02:41:58;19.27;;;9.20;;
72284;SDS011;60220;53.552;10.092;2022-07-21T02:44:24;17.63;;;9.20;;
72284;SDS011;60220;53.552;10.092;2022-07-21T02:46:52;24.00;;;10.25;;
72284;SDS011;60220;53.552;10.092;2022-07-21T02:49:17;18.58;;;8.63;;
72284;SDS011;60220;53.552;10.092;2022-07-21T02:51:45;18.67;;;8.75;;
72284;SDS011;60220;53.552;10.092;2022-07-21T02:54:13;17.80;;;9.32;;
72284;SDS011;60220;53.552;10.092;2022-07-21T02:56:38;14.45;;;8.73;;
72284;SDS011;60220;53.552;10.092;2022-07-21T02:59:03;18.48;;;9.30;;
72284;SDS011;60220;53.552;10.092;2022-07-21T03:01:29;24.23;;;10.73;;
72284;SDS011;60220;53.552;10.092;2022-07-21T03:03:54;21.45;;;9.45;;
72284;SDS011;60220;53.552;10.092;2022-07-21T03:06:20;21.60;;;10.80;;
72284;SDS011;60220;53.552;10.092;2022-07-21T03:08:47;17.67;;;9.50;;
72284;SDS011;60220;53.552;10.092;2022-07-21T03:11:15;30.50;;;11.35;;
72284;SDS011;60220;53.552;10.092;2022-07-21T03:13:41;19.10;;;11.32;;
72284;SDS011;60220;53.552;10.092;2022-07-21T03:16:06;21.50;;;9.98;;
72284;SDS011;60220;53.552;10.092;2022-07-21T03:18:32;18.35;;;10.02;;
72284;SDS011;60220;53.552;10.092;2022-07-21T03:21:00;20.92;;;9.75;;
72284;SDS011;60220;53.552;10.092;2022-07-21T03:23:25;21.30;;;9.68;;
72284;SDS011;60220;53.552;10.092;2022-07-21T03:25:51;16.00;;;9.13;;
72284;SDS011;60220;53.552;10.092;2022-07-21T03:28:16;17.27;;;9.60;;
72284;SDS011;60220;53.552;10.092;2022-07-21T03:30:43;21.70;;;8.43;;
72284;SDS011;60220;53.552;10.092;2022-07-21T03:33:08;18.77;;;8.65;;
72284;SDS011;60220;53.552;10.092;2022-07-21T03:35:36;17.27;;;8.60;;
72284;SDS011;60220;53.552;10.092;2022-07-21T03:38:07;19.40;;;8.15;;
72284;SDS011;60220;53.552;10.092;2022-07-21T03:40:34;21.25;;;8.35;;
72284;SDS011;60220;53.552;10.092;2022-07-21T03:43:04;15.25;;;7.30;;
72284;SDS011;60220;53.552;10.092;2022-07-21T03:45:34;16.13;;;6.88;;
72284;SDS011;60220;53.552;10.092;2022-07-21T03:48:01;22.73;;;7.68;;
72284;SDS011;60220;53.552;10.092;2022-07-21T03:50:30;18.92;;;8.10;;
72284;SDS011;60220;53.552;10.092;2022-07-21T03:52:56;22.33;;;7.40;;
72284;SDS011;60220;53.552;10.092;2022-07-21T03:55:24;13.52;;;7.00;;
72284;SDS011;60220;53.552;10.092;2022-07-21T03:57:54;16.38;;;6.93;;
72284;SDS011;60220;53.552;10.092;2022-07-21T04:00:26;15.48;;;6.68;;
72284;SDS011;60220;53.552;10.092;2022-07-21T04:02:54;16.77;;;7.30;;
72284;SDS011;60220;53.552;10.092;2022-07-21T04:05:22;12.55;;;6.20;;
72284;SDS011;60220;53.552;10.092;2022-07-21T04:07:51;13.43;;;5.57;;
72284;SDS011;60220;53.552;10.092;2022-07-21T04:10:18;21.38;;;6.75;;
72284;SDS011;60220;53.552;10.092;2022-07-21T04:12:46;13.32;;;5.38;;
72284;SDS011;60220;53.552;10.092;2022-07-21T04:15:13;14.88;;;6.13;;
72284;SDS011;60220;53.552;10.092;2022-07-21T04:17:39;16.58;;;6.43;;
72284;SDS011;60220;53.552;10.092;2022-07-21T04:20:05;21.27;;;6.63;;
72284;SDS011;60220;53.552;10.092;2022-07-21T04:22:32;15.70;;;5.50;;
72284;SDS011;60220;53.552;10.092;2022-07-21T04:24:57;16.30;;;4.63;;
72284;SDS011;60220;53.552;10.092;2022-07-21T04:27:24;17.83;;;5.40;;
72284;SDS011;60220;53.552;10.092;2022-07-21T04:29:54;18.70;;;8.18;;
72284;SDS011;60220;53.552;10.092;2022-07-21T04:32:20;10.57;;;4.50;;
72284;SDS011;60220;53.552;10.092;2022-07-21T04:34:45;15.10;;;5.35;;
72284;SDS011;60220;53.552;10.092;2022-07-21T04:37:13;8.70;;;4.47;;
72284;SDS011;60220;53.552;10.092;2022-07-21T04:39:39;12.77;;;4.68;;
72284;SDS011;60220;53.552;10.092;2022-07-21T04:42:04;18.13;;;5.63;;
72284;SDS011;60220;53.552;10.092;2022-07-21T04:44:29;16.92;;;4.63;;
72284;SDS011;60220;53.552;10.092;2022-07-21T04:46:55;7.88;;;4.03;;
72284;SDS011;60220;53.552;10.092;2022-07-21T04:49:25;11.63;;;4.30;;
72284;SDS011;60220;53.552;10.092;2022-07-21T04:51:52;15.70;;;5.25;;
72284;SDS011;60220;53.552;10.092;2022-07-21T04:54:18;13.68;;;5.38;;
72284;SDS011;60220;53.552;10.092;2022-07-21T04:56:46;13.38;;;4.70;;
72284;SDS011;60220;53.552;10.092;2022-07-21T04:59:11;11.48;;;4.65;;
72284;SDS011;60220;53.552;10.092;2022-07-21T05:01:37;17.98;;;4.30;;
72284;SDS011;60220;53.552;10.092;2022-07-21T05:04:04;10.80;;;4.15;;
72284;SDS011;60220;53.552;10.092;2022-07-21T05:06:30;13.27;;;4.15;;
72284;SDS011;60220;53.552;10.092;2022-07-21T05:08:56;11.88;;;4.25;;
72284;SDS011;60220;53.552;10.092;2022-07-21T05:11:24;9.25;;;4.00;;
72284;SDS011;60220;53.552;10.092;2022-07-21T05:13:52;13.95;;;4.38;;
72284;SDS011;60220;53.552;10.092;2022-07-21T05:16:20;15.20;;;4.30;;
72284;SDS011;60220;53.552;10.092;2022-07-21T05:18:51;10.55;;;4.25;;
72284;SDS011;60220;53.552;10.092;2022-07-21T05:21:16;11.50;;;4.30;;
72284;SDS011;60220;53.552;10.092;2022-07-21T05:23:42;10.23;;;3.95;;
72284;SDS011;60220;53.552;10.092;2022-07-21T05:26:07;12.82;;;4.32;;
72284;SDS011;60220;53.552;10.092;2022-07-21T05:28:33;7.47;;;3.35;;
72284;SDS011;60220;53.552;10.092;2022-07-21T05:31:00;11.80;;;4.10;;
72284;SDS011;60220;53.552;10.092;2022-07-21T05:33:26;9.73;;;3.97;;
72284;SDS011;60220;53.552;10.092;2022-07-21T05:35:51;10.80;;;4.38;;
72284;SDS011;60220;53.552;10.092;2022-07-21T05:38:16;10.30;;;3.92;;
72284;SDS011;60220;53.552;10.092;2022-07-21T05:40:42;13.77;;;4.40;;
72284;SDS011;60220;53.552;10.092;2022-07-21T05:43:10;6.53;;;3.20;;
72284;SDS011;60220;53.552;10.092;2022-07-21T05:45:35;13.48;;;4.93;;
72284;SDS011;60220;53.552;10.092;2022-07-21T05:48:03;11.38;;;3.95;;
72284;SDS011;60220;53.552;10.092;2022-07-21T05:50:28;10.57;;;3.80;;
72284;SDS011;60220;53.552;10.092;2022-07-21T05:52:56;12.70;;;4.30;;
72284;SDS011;60220;53.552;10.092;2022-07-21T05:55:24;13.48;;;4.40;;
72284;SDS011;60220;53.552;10.092;2022-07-21T05:57:52;6.43;;;3.60;;
72284;SDS011;60220;53.552;10.092;2022-07-21T06:00:18;12.63;;;4.32;;
72284;SDS011;60220;53.552;10.092;2022-07-21T06:02:45;11.50;;;4.65;;
72284;SDS011;60220;53.552;10.092;2022-07-21T06:05:11;15.82;;;4.40;;
72284;SDS011;60220;53.552;10.092;2022-07-21T06:07:39;11.48;;;3.90;;
72284;SDS011;60220;53.552;10.092;2022-07-21T06:10:05;11.70;;;3.95;;
72284;SDS011;60220;53.552;10.092;2022-07-21T06:12:31;9.23;;;5.35;;
72284;SDS011;60220;53.552;10.092;2022-07-21T06:14:57;13.25;;;5.65;;
72284;SDS011;60220;53.552;10.092;2022-07-21T06:17:22;9.82;;;3.67;;
72284;SDS011;60220;53.552;10.092;2022-07-21T06:19:50;10.63;;;3.80;;
72284;SDS011;60220;53.552;10.092;2022-07-21T06:22:16;15.82;;;5.15;;
72284;SDS011;60220;53.552;10.092;2022-07-21T06:24:46;15.50;;;4.68;;
72284;SDS011;60220;53.552;10.092;2022-07-21T06:27:11;15.43;;;5.97;;
72284;SDS011;60220;53.552;10.092;2022-07-21T06:29:36;17.02;;;5.55;;
72284;SDS011;60220;53.552;10.092;2022-07-21T06:32:02;19.15;;;6.32;;
72284;SDS011;60220;53.552;10.092;2022-07-21T06:34:29;21.42;;;7.05;;
72284;SDS011;60220;53.552;10.092;2022-07-21T06:36:57;28.25;;;13.77;;
72284;SDS011;60220;53.552;10.092;2022-07-21T06:39:23;22.75;;;7.50;;
72284;SDS011;60220;53.552;10.092;2022-07-21T06:41:48;26.55;;;8.57;;
72284;SDS011;60220;53.552;10.092;2022-07-21T06:44:16;24.50;;;7.18;;
72284;SDS011;60220;53.552;10.092;2022-07-21T06:46:44;17.88;;;7.15;;
72284;SDS011;60220;53.552;10.092;2022-07-21T06:49:10;14.35;;;6.80;;
72284;SDS011;60220;53.552;10.092;2022-07-21T06:51:37;20.23;;;7.05;;
72284;SDS011;60220;53.552;10.092;2022-07-21T06:54:03;11.60;;;5.82;;
72284;SDS011;60220;53.552;10.092;2022-07-21T06:56:28;22.90;;;12.63;;
72284;SDS011;60220;53.552;10.092;2022-07-21T06:58:56;15.60;;;8.15;;
72284;SDS011;60220;53.552;10.092;2022-07-21T07:01:24;21.80;;;11.75;;
72284;SDS011;60220;53.552;10.092;2022-07-21T07:03:49;23.73;;;8.70;;
72284;SDS011;60220;53.552;10.092;2022-07-21T07:06:15;16.23;;;5.82;;
72284;SDS011;60220;53.552;10.092;2022-07-21T07:08:40;12.38;;;6.70;;
72284;SDS011;60220;53.552;10.092;2022-07-21T07:11:06;15.43;;;7.53;;
72284;SDS011;60220;53.552;10.092;2022-07-21T07:13:33;14.30;;;7.25;;
72284;SDS011;60220;53.552;10.092;2022-07-21T07:15:59;25.05;;;11.82;;
72284;SDS011;60220;53.552;10.092;2022-07-21T07:18:24;12.20;;;6.95;;
72284;SDS011;60220;53.552;10.092;2022-07-21T07:20:50;26.85;;;15.23;;
72284;SDS011;60220;53.552;10.092;2022-07-21T07:23:16;19.20;;;9.48;;
72284;SDS011;60220;53.552;10.092;2022-07-21T07:25:42;20.00;;;9.23;;
72284;SDS011;60220;53.552;10.092;2022-07-21T07:28:10;18.65;;;7.95;;
72284;SDS011;60220;53.552;10.092;2022-07-21T07:30:36;18.48;;;8.65;;
72284;SDS011;60220;53.552;10.092;2022-07-21T07:33:01;21.75;;;8.05;;
72284;SDS011;60220;53.552;10.092;2022-07-21T07:35:27;16.80;;;8.80;;
72284;SDS011;60220;53.552;10.092;2022-07-21T07:37:52;15.23;;;7.47;;
72284;SDS011;60220;53.552;10.092;2022-07-21T07:40:19;16.70;;;9.20;;
72284;SDS011;60220;53.552;10.092;2022-07-21T07:42:48;16.58;;;8.35;;
72284;SDS011;60220;53.552;10.092;2022-07-21T07:45:14;16.42;;;7.97;;
72284;SDS011;60220;53.552;10.092;2022-07-21T07:47:39;18.60;;;8.15;;
72284;SDS011;60220;53.552;10.092;2022-07-21T07:50:09;21.13;;;9.23;;
72284;SDS011;60220;53.552;10.092;2022-07-21T07:52:37;15.95;;;9.90;;
72284;SDS011;60220;53.552;10.092;2022-07-21T07:55:03;20.77;;;8.73;;
72284;SDS011;60220;53.552;10.092;2022-07-21T07:57:33;19.95;;;9.13;;
72284;SDS011;60220;53.552;10.092;2022-07-21T08:00:00;18.65;;;9.35;;
72284;SDS011;60220;53.552;10.092;2022-07-21T08:02:30;29.30;;;10.77;;
72284;SDS011;60220;53.552;10.092;2022-07-21T08:04:55;32.03;;;11.27;;
72284;SDS011;60220;53.552;10.092;2022-07-21T08:07:23;23.02;;;10.50;;
72284;SDS011;60220;53.552;10.092;2022-07-21T08:09:53;17.17;;;9.75;;
72284;SDS011;60220;53.552;10.092;2022-07-21T08:12:19;16.58;;;9.95;;
72284;SDS011;60220;53.552;10.092;2022-07-21T08:14:44;20.10;;;11.05;;
72284;SDS011;60220;53.552;10.092;2022-07-21T08:17:12;20.73;;;11.63;;
72284;SDS011;60220;53.552;10.092;2022-07-21T08:19:41;23.42;;;11.48;;
72284;SDS011;60220;53.552;10.092;2022-07-21T08:22:07;23.42;;;13.18;;
72284;SDS011;60220;53.552;10.092;2022-07-21T08:24:33;25.70;;;13.63;;
72284;SDS011;60220;53.552;10.092;2022-07-21T08:27:27;22.73;;;13.35;;
72284;SDS011;60220;53.552;10.092;2022-07-21T08:29:52;22.45;;;13.13;;
72284;SDS011;60220;53.552;10.092;2022-07-21T08:32:21;26.90;;;12.48;;
72284;SDS011;60220;53.552;10.092;2022-07-21T08:34:46;25.83;;;14.05;;
72284;SDS011;60220;53.552;10.092;2022-07-21T08:37:12;23.73;;;12.85;;
72284;SDS011;60220;53.552;10.092;2022-07-21T08:39:39;22.77;;;13.45;;
72284;SDS011;60220;53.552;10.092;2022-07-21T08:42:08;22.98;;;13.18;;
72284;SDS011;60220;53.552;10.092;2022-07-21T08:44:36;28.63;;;13.68;;
72284;SDS011;60220;53.552;10.092;2022-07-21T08:47:04;25.23;;;13.27;;
72284;SDS011;60220;53.552;10.092;2022-07-21T08:49:30;28.70;;;15.40;;
72284;SDS011;60220;53.552;10.092;2022-07-21T08:51:58;28.75;;;14.75;;
72284;SDS011;60220;53.552;10.092;2022-07-21T08:54:24;33.10;;;16.25;;
72284;SDS011;60220;53.552;10.092;2022-07-21T08:56:49;25.70;;;17.50;;
72284;SDS011;60220;53.552;10.092;2022-07-21T08:59:17;26.77;;;16.08;;
72284;SDS011;60220;53.552;10.092;2022-07-21T09:01:43;34.65;;;17.83;;
72284;SDS011;60220;53.552;10.092;2022-07-21T09:04:18;28.40;;;17.15;;
72284;SDS011;60220;53.552;10.092;2022-07-21T09:06:54;30.15;;;17.02;;
72284;SDS011;60220;53.552;10.092;2022-07-21T09:09:24;30.88;;;17.85;;
72284;SDS011;60220;53.552;10.092;2022-07-21T09:11:53;28.38;;;17.42;;
72284;SDS011;60220;53.552;10.092;2022-07-21T09:14:22;27.17;;;16.00;;
72284;SDS011;60220;53.552;10.092;2022-07-21T09:22:04;33.60;;;19.95;;
72284;SDS011;60220;53.552;10.092;2022-07-21T09:24:34;32.13;;;18.33;;
72284;SDS011;60220;53.552;10.092;2022-07-21T09:29:56;30.65;;;18.70;;
72284;SDS011;60220;53.552;10.092;2022-07-21T09:32:32;26.73;;;16.63;;
72284;SDS011;60220;53.552;10.092;2022-07-21T09:35:05;22.40;;;15.55;;
72284;SDS011;60220;53.552;10.092;2022-07-21T09:37:36;26.35;;;15.48;;
72284;SDS011;60220;53.552;10.092;2022-07-21T09:40:10;21.98;;;15.23;;
72284;SDS011;60220;53.552;10.092;2022-07-21T09:42:41;22.77;;;15.35;;
72284;SDS011;60220;53.552;10.092;2022-07-21T09:45:18;21.73;;;15.05;;
72284;SDS011;60220;53.552;10.092;2022-07-21T09:47:49;23.52;;;14.35;;
72284;SDS011;60220;53.552;10.092;2022-07-21T09:50:17;27.05;;;15.52;;
72284;SDS011;60220;53.552;10.092;2022-07-21T09:52:43;33.05;;;15.80;;
72284;SDS011;60220;53.552;10.092;2022-07-21T09:55:11;20.63;;;15.52;;
72284;SDS011;60220;53.552;10.092;2022-07-21T09:57:38;23.33;;;14.38;;
72284;SDS011;60220;53.552;10.092;2022-07-21T10:00:05;24.05;;;15.52;;
72284;SDS011;60220;53.552;10.092;2022-07-21T10:02:35;24.20;;;15.70;;
72284;SDS011;60220;53.552;10.092;2022-07-21T10:05:05;30.52;;;20.73;;
72284;SDS011;60220;53.552;10.092;2022-07-21T10:07:36;25.20;;;15.02;;
72284;SDS011;60220;53.552;10.092;2022-07-21T10:10:05;22.92;;;13.82;;
72284;SDS011;60220;53.552;10.092;2022-07-21T10:12:33;19.20;;;13.23;;
72284;SDS011;60220;53.552;10.092;2022-07-21T10:15:02;20.85;;;13.40;;
72284;SDS011;60220;53.552;10.092;2022-07-21T10:17:30;21.35;;;14.38;;
72284;SDS011;60220;53.552;10.092;2022-07-21T10:25:32;18.55;;;12.77;;
72284;SDS011;60220;53.552;10.092;2022-07-21T10:30:39;17.45;;;11.50;;
72284;SDS011;60220;53.552;10.092;2022-07-21T10:35:34;15.77;;;10.10;;
72284;SDS011;60220;53.552;10.092;2022-07-21T10:38:02;18.35;;;11.27;;
72284;SDS011;60220;53.552;10.092;2022-07-21T10:45:31;14.25;;;9.95;;
72284;SDS011;60220;53.552;10.092;2022-07-21T10:48:07;18.77;;;10.70;;
72284;SDS011;60220;53.552;10.092;2022-07-21T10:50:53;16.65;;;10.55;;
72284;SDS011;60220;53.552;10.092;2022-07-21T10:53:25;15.20;;;10.27;;
72284;SDS011;60220;53.552;10.092;2022-07-21T10:55:53;13.02;;;9.45;;
72284;SDS011;60220;53.552;10.092;2022-07-21T11:00:52;14.00;;;9.60;;
72284;SDS011;60220;53.552;10.092;2022-07-21T11:03:25;13.70;;;9.63;;
72284;SDS011;60220;53.552;10.092;2022-07-21T11:11:27;14.75;;;8.57;;
72284;SDS011;60220;53.552;10.092;2022-07-21T11:22:00;8.93;;;6.88;;
72284;SDS011;60220;53.552;10.092;2022-07-21T11:24:55;11.60;;;6.75;;
72284;SDS011;60220;53.552;10.092;2022-07-21T11:27:26;12.27;;;8.10;;
72284;SDS011;60220;53.552;10.092;2022-07-21T11:29:56;12.77;;;8.07;;
72284;SDS011;60220;53.552;10.092;2022-07-21T11:32:24;10.65;;;6.97;;
72284;SDS011;60220;53.552;10.092;2022-07-21T11:34:51;15.00;;;8.75;;
72284;SDS011;60220;53.552;10.092;2022-07-21T11:37:27;10.68;;;6.38;;
72284;SDS011;60220;53.552;10.092;2022-07-21T11:39:55;6.72;;;5.22;;
72284;SDS011;60220;53.552;10.092;2022-07-21T11:42:22;14.30;;;6.43;;
72284;SDS011;60220;53.552;10.092;2022-07-21T11:44:47;9.52;;;6.47;;
72284;SDS011;60220;53.552;10.092;2022-07-21T11:47:14;10.60;;;5.80;;
72284;SDS011;60220;53.552;10.092;2022-07-21T11:49:40;13.80;;;7.68;;
72284;SDS011;60220;53.552;10.092;2022-07-21T11:52:11;12.40;;;7.43;;
72284;SDS011;60220;53.552;10.092;2022-07-21T11:54:42;10.65;;;5.97;;
72284;SDS011;60220;53.552;10.092;2022-07-21T11:57:10;8.50;;;5.93;;
72284;SDS011;60220;53.552;10.092;2022-07-21T11:59:37;11.13;;;5.88;;
72284;SDS011;60220;53.552;10.092;2022-07-21T12:04:51;6.75;;;5.93;;
72284;SDS011;60220;53.552;10.092;2022-07-21T12:07:19;8.50;;;5.68;;
72284;SDS011;60220;53.552;10.092;2022-07-21T12:09:46;10.27;;;6.25;;
72284;SDS011;60220;53.552;10.092;2022-07-21T12:12:14;13.70;;;7.47;;
72284;SDS011;60220;53.552;10.092;2022-07-21T12:14:41;9.13;;;6.07;;
72284;SDS011;60220;53.552;10.092;2022-07-21T12:17:07;10.13;;;7.03;;
72284;SDS011;60220;53.552;10.092;2022-07-21T12:19:35;22.20;;;11.20;;
72284;SDS011;60220;53.552;10.092;2022-07-21T12:22:03;11.18;;;6.28;;
72284;SDS011;60220;53.552;10.092;2022-07-21T12:24:51;7.93;;;5.15;;
72284;SDS011;60220;53.552;10.092;2022-07-21T12:27:23;8.38;;;5.85;;
72284;SDS011;60220;53.552;10.092;2022-07-21T12:29:49;7.13;;;5.55;;
72284;SDS011;60220;53.552;10.092;2022-07-21T12:35:02;8.00;;;6.05;;
72284;SDS011;60220;53.552;10.092;2022-07-21T12:40:24;8.77;;;5.70;;
72284;SDS011;60220;53.552;10.092;2022-07-21T12:42:50;7.75;;;4.95;;
72284;SDS011;60220;53.552;10.092;2022-07-21T12:45:27;9.68;;;5.57;;
72284;SDS011;60220;53.552;10.092;2022-07-21T12:48:11;6.35;;;5.05;;
72284;SDS011;60220;53.552;10.092;2022-07-21T12:50:39;6.90;;;4.20;;
72284;SDS011;60220;53.552;10.092;2022-07-21T12:53:13;9.60;;;4.78;;
72284;SDS011;60220;53.552;10.092;2022-07-21T12:55:41;4.90;;;3.80;;
72284;SDS011;60220;53.552;10.092;2022-07-21T12:58:09;4.78;;;3.42;;
72284;SDS011;60220;53.552;10.092;2022-07-21T13:00:34;6.57;;;3.95;;
72284;SDS011;60220;53.552;10.092;2022-07-21T13:02:59;6.72;;;3.72;;
72284;SDS011;60220;53.552;10.092;2022-07-21T13:05:25;3.83;;;3.47;;
72284;SDS011;60220;53.552;10.092;2022-07-21T13:07:51;7.43;;;3.70;;
72284;SDS011;60220;53.552;10.092;2022-07-21T13:10:18;6.18;;;3.83;;
72284;SDS011;60220;53.552;10.092;2022-07-21T13:12:46;5.25;;;3.83;;
72284;SDS011;60220;53.552;10.092;2022-07-21T13:15:15;4.53;;;3.53;;
72284;SDS011;60220;53.552;10.092;2022-07-21T13:17:43;3.92;;;3.47;;
72284;SDS011;60220;53.552;10.092;2022-07-21T13:20:11;5.53;;;3.70;;
72284;SDS011;60220;53.552;10.092;2022-07-21T13:22:40;6.15;;;3.90;;
72284;SDS011;60220;53.552;10.092;2022-07-21T13:25:07;4.70;;;4.10;;
72284;SDS011;60220;53.552;10.092;2022-07-21T13:27:36;4.53;;;4.05;;
72284;SDS011;60220;53.552;10.092;2022-07-21T13:30:02;6.30;;;3.80;;
72284;SDS011;60220;53.552;10.092;2022-07-21T13:32:29;5.60;;;4.03;;
72284;SDS011;60220;53.552;10.092;2022-07-21T13:34:55;5.97;;;3.42;;
72284;SDS011;60220;53.552;10.092;2022-07-21T13:37:22;7.38;;;3.97;;
72284;SDS011;60220;53.552;10.092;2022-07-21T13:39:48;6.50;;;4.00;;
72284;SDS011;60220;53.552;10.092;2022-07-21T13:42:13;6.20;;;3.95;;
72284;SDS011;60220;53.552;10.092;2022-07-21T13:44:39;5.80;;;3.38;;
72284;SDS011;60220;53.552;10.092;2022-07-21T13:47:09;4.63;;;3.30;;
72284;SDS011;60220;53.552;10.092;2022-07-21T13:49:34;6.07;;;3.88;;
72284;SDS011;60220;53.552;10.092;2022-07-21T13:52:02;6.25;;;3.70;;
72284;SDS011;60220;53.552;10.092;2022-07-21T13:54:30;5.55;;;3.83;;
72284;SDS011;60220;53.552;10.092;2022-07-21T13:56:55;5.60;;;3.78;;
72284;SDS011;60220;53.552;10.092;2022-07-21T13:59:22;7.30;;;3.58;;
72284;SDS011;60220;53.552;10.092;2022-07-21T14:01:48;6.28;;;3.63;;
72284;SDS011;60220;53.552;10.092;2022-07-21T14:04:16;12.70;;;3.42;;
72284;SDS011;60220;53.552;10.092;2022-07-21T14:06:41;5.43;;;2.85;;
72284;SDS011;60220;53.552;10.092;2022-07-21T14:09:11;5.05;;;2.97;;
72284;SDS011;60220;53.552;10.092;2022-07-21T14:11:37;5.15;;;3.05;;
72284;SDS011;60220;53.552;10.092;2022-07-21T14:14:08;4.32;;;3.15;;
72284;SDS011;60220;53.552;10.092;2022-07-21T14:16:36;2.70;;;2.00;;
72284;SDS011;60220;53.552;10.092;2022-07-21T14:19:02;4.35;;;2.75;;
72284;SDS011;60220;53.552;10.092;2022-07-21T14:21:27;2.75;;;2.17;;
72284;SDS011;60220;53.552;10.092;2022-07-21T14:23:53;3.53;;;2.47;;
72284;SDS011;60220;53.552;10.092;2022-07-21T14:26:39;5.70;;;2.97;;
72284;SDS011;60220;53.552;10.092;2022-07-21T14:29:09;4.07;;;2.67;;
72284;SDS011;60220;53.552;10.092;2022-07-21T14:31:37;7.97;;;6.05;;
72284;SDS011;60220;53.552;10.092;2022-07-21T14:34:02;6.40;;;3.58;;
72284;SDS011;60220;53.552;10.092;2022-07-21T14:36:28;5.97;;;3.15;;
72284;SDS011;60220;53.552;10.092;2022-07-21T14:38:54;2.83;;;2.28;;
72284;SDS011;60220;53.552;10.092;2022-07-21T14:41:19;2.67;;;2.20;;
72284;SDS011;60220;53.552;10.092;2022-07-21T14:43:47;4.10;;;2.58;;
72284;SDS011;60220;53.552;10.092;2022-07-21T14:46:16;3.05;;;2.47;;
72284;SDS011;60220;53.552;10.092;2022-07-21T14:48:41;4.63;;;2.13;;
72284;SDS011;60220;53.552;10.092;2022-07-21T14:51:07;4.32;;;2.88;;
72284;SDS011;60220;53.552;10.092;2022-07-21T14:53:33;3.90;;;2.88;;
72284;SDS011;60220;53.552;10.092;2022-07-21T14:56:01;4.13;;;2.70;;
72284;SDS011;60220;53.552;10.092;2022-07-21T14:58:28;5.03;;;2.50;;
72284;SDS011;60220;53.552;10.092;2022-07-21T15:00:54;5.63;;;2.53;;
72284;SDS011;60220;53.552;10.092;2022-07-21T15:03:19;5.05;;;2.60;;
72284;SDS011;60220;53.552;10.092;2022-07-21T15:05:45;4.03;;;2.08;;
72284;SDS011;60220;53.552;10.092;2022-07-21T15:08:10;3.25;;;2.63;;
72284;SDS011;60220;53.552;10.092;2022-07-21T15:10:39;2.90;;;2.10;;